createdAt,value
2018-06-04T00:00:10.322Z,100856.97
2018-06-04T00:02:39.430Z,100856.02
2018-06-04T00:05:08.558Z,100856.52
2018-06-04T00:07:37.670Z,100855.52
2018-06-04T00:10:06.798Z,100847.39
2018-06-04T00:12:35.890Z,100851.14
2018-06-04T00:15:05.040Z,100856.38
2018-06-04T00:17:34.158Z,100852.95
2018-06-04T00:23:00.753Z,100845.50
2018-06-04T00:25:29.868Z,100840.43
2018-06-04T00:27:58.946Z,100834.67
2018-06-04T00:30:28.034Z,100835.86
2018-06-04T00:32:57.154Z,100833.25
2018-06-04T00:35:26.250Z,100829.28
2018-06-04T00:37:55.357Z,100831.30
2018-06-04T00:40:24.454Z,100831.40
2018-06-04T00:42:53.561Z,100833.34
2018-06-04T00:45:22.661Z,100828.66
2018-06-04T00:47:51.753Z,100821.98
2018-06-04T00:50:20.872Z,100819.97
2018-06-04T00:52:49.957Z,100815.61
2018-06-04T00:55:19.058Z,100816.33
2018-06-04T00:57:48.154Z,100816.23
2018-06-04T01:00:17.242Z,100813.63
2018-06-04T01:02:46.366Z,100814.62
2018-06-04T01:05:15.453Z,100818.66
2018-06-04T01:07:44.557Z,100821.14
2018-06-04T01:10:13.658Z,100816.61
2018-06-04T01:12:42.749Z,100813.08
2018-06-04T01:15:11.879Z,100806.26
2018-06-04T01:17:40.985Z,100807.23
2018-06-04T01:20:10.079Z,100810.45
2018-06-04T01:22:39.178Z,100800.69
2018-06-04T01:25:08.289Z,100802.38
2018-06-04T01:27:37.459Z,100795.45
2018-06-04T01:30:06.545Z,100794.42
2018-06-04T01:32:35.636Z,100791.92
2018-06-04T01:35:04.753Z,100803.79
2018-06-04T01:37:33.846Z,100786.66
2018-06-04T01:40:02.962Z,100794.55
2018-06-04T01:42:32.073Z,100790.51
2018-06-04T01:45:01.169Z,100789.73
2018-06-04T01:47:30.273Z,100789.64
2018-06-04T01:49:59.387Z,100788.20
2018-06-04T01:52:28.510Z,100791.56
2018-06-04T01:54:57.598Z,100781.31
2018-06-04T01:57:26.677Z,100780.80
2018-06-04T01:59:55.778Z,100786.75
2018-06-04T02:02:24.873Z,100787.11
2018-06-04T02:04:53.997Z,100785.34
2018-06-04T02:07:30.969Z,100786.34
2018-06-04T02:10:00.088Z,100783.00
2018-06-04T02:12:29.217Z,100780.44
2018-06-04T02:14:58.310Z,100791.69
2018-06-04T02:17:27.413Z,100788.06
2018-06-04T02:19:56.577Z,100789.73
2018-06-04T02:22:25.729Z,100787.20
2018-06-04T02:24:55.109Z,100791.05
2018-06-04T02:27:24.221Z,100789.19
2018-06-04T02:29:53.345Z,100785.13
2018-06-04T02:32:22.429Z,100794.70
2018-06-04T02:34:51.541Z,100784.80
2018-06-04T02:37:20.633Z,100787.52
2018-06-04T02:39:49.737Z,100788.20
2018-06-04T02:42:18.837Z,100790.95
2018-06-04T02:44:47.925Z,100785.34
2018-06-04T02:47:17.034Z,100783.55
2018-06-04T02:49:46.138Z,100780.57
2018-06-04T02:52:15.214Z,100790.86
2018-06-04T02:54:44.330Z,100779.80
2018-06-04T02:57:13.434Z,100778.04
2018-06-04T02:59:42.548Z,100779.42
2018-06-04T03:02:11.650Z,100784.89
2018-06-04T03:04:40.739Z,100785.60
2018-06-04T03:07:09.870Z,100776.41
2018-06-04T03:09:38.982Z,100778.65
2018-06-04T03:12:08.098Z,100781.71
2018-06-04T03:14:37.206Z,100775.09
2018-06-04T03:17:06.296Z,100773.73
2018-06-04T03:19:35.393Z,100777.65
2018-06-04T03:22:04.497Z,100773.47
2018-06-04T03:24:33.606Z,100777.95
2018-06-04T03:27:02.720Z,100772.17
2018-06-04T03:29:31.825Z,100770.59
2018-06-04T03:32:01.014Z,100778.33
2018-06-04T03:34:30.102Z,100778.50
2018-06-04T03:36:59.250Z,100778.62
2018-06-04T03:39:28.369Z,100780.11
2018-06-04T03:41:57.504Z,100779.58
2018-06-04T03:44:26.617Z,100778.56
2018-06-04T03:46:55.745Z,100782.98
2018-06-04T03:49:24.897Z,100774.62
2018-06-04T03:51:53.997Z,100774.23
2018-06-04T03:54:23.118Z,100769.05
2018-06-04T03:56:52.233Z,100770.38
2018-06-04T03:59:21.354Z,100770.50
2018-06-04T04:01:50.549Z,100764.62
2018-06-04T04:04:19.585Z,100767.10
2018-06-04T04:06:48.697Z,100767.22
2018-06-04T04:09:17.818Z,100766.91
2018-06-04T04:11:46.922Z,100766.26
2018-06-04T04:14:16.026Z,100766.23
2018-06-04T04:16:45.102Z,100765.01
2018-06-04T04:19:14.200Z,100755.81
2018-06-04T04:21:43.318Z,100758.54
2018-06-04T04:24:12.497Z,100762.09
2018-06-04T04:26:41.619Z,100755.67
2018-06-04T04:29:10.758Z,100761.96
2018-06-04T04:31:39.821Z,100756.14
2018-06-04T04:34:08.925Z,100757.93
2018-06-04T04:36:38.025Z,100760.55
2018-06-04T04:39:08.973Z,100761.39
2018-06-04T04:41:38.061Z,100762.70
2018-06-04T04:44:07.153Z,100757.84
2018-06-04T04:46:36.308Z,100761.59
2018-06-04T04:49:05.386Z,100756.14
2018-06-04T04:51:34.490Z,100758.84
2018-06-04T04:54:03.593Z,100760.73
2018-06-04T04:56:32.702Z,100764.14
2018-06-04T04:59:01.793Z,100757.65
2018-06-04T05:01:30.913Z,100760.25
2018-06-04T05:04:00.062Z,100760.54
2018-06-04T05:06:29.187Z,100755.02
2018-06-04T05:08:58.348Z,100757.58
2018-06-04T05:11:27.465Z,100761.38
2018-06-04T05:13:56.574Z,100759.31
2018-06-04T05:16:25.706Z,100756.08
2018-06-04T05:18:54.897Z,100752.23
2018-06-04T05:21:24.206Z,100757.39
2018-06-04T05:23:53.325Z,100759.22
2018-06-04T05:26:22.458Z,100756.41
2018-06-04T05:28:51.606Z,100761.30
2018-06-04T05:31:20.710Z,100762.98
2018-06-04T05:33:49.830Z,100766.69
2018-06-04T05:36:18.930Z,100763.43
2018-06-04T05:38:48.024Z,100762.64
2018-06-04T05:41:17.515Z,100755.86
2018-06-04T05:43:46.625Z,100758.24
2018-06-04T05:46:15.701Z,100753.19
2018-06-04T05:48:44.826Z,100757.41
2018-06-04T05:51:13.933Z,100761.25
2018-06-04T05:53:43.045Z,100753.98
2018-06-04T05:56:12.194Z,100752.88
2018-06-04T05:58:41.253Z,100751.15
2018-06-04T06:01:10.366Z,100744.98
2018-06-04T06:03:39.454Z,100739.08
2018-06-04T06:06:08.558Z,100740.98
2018-06-04T06:08:37.689Z,100736.23
2018-06-04T06:11:06.909Z,100736.62
2018-06-04T06:13:36.002Z,100733.98
2018-06-04T06:16:05.109Z,100733.86
2018-06-04T06:18:34.229Z,100728.53
2018-06-04T06:21:03.339Z,100723.34
2018-06-04T06:23:32.409Z,100725.37
2018-06-04T06:26:01.518Z,100718.28
2018-06-04T06:28:30.634Z,100716.87
2018-06-04T06:30:59.757Z,100713.23
2018-06-04T06:33:28.893Z,100714.21
2018-06-04T06:35:57.990Z,100718.00
2018-06-04T06:38:27.118Z,100717.18
2018-06-04T06:40:56.249Z,100713.28
2018-06-04T06:43:25.358Z,100710.65
2018-06-04T06:45:54.446Z,100709.98
2018-06-04T06:48:23.581Z,100709.55
2018-06-04T06:50:52.697Z,100707.58
2018-06-04T06:53:21.805Z,100705.33
2018-06-04T06:55:50.934Z,100704.70
2018-06-04T06:58:20.077Z,100700.37
2018-06-04T07:00:49.170Z,100693.58
2018-06-04T07:03:18.418Z,100710.95
2018-06-04T07:05:47.533Z,100703.94
2018-06-04T07:08:16.679Z,100706.56
2018-06-04T07:10:45.821Z,100698.95
2018-06-04T07:13:14.945Z,100692.03
2018-06-04T07:15:44.063Z,100697.30
2018-06-04T07:18:13.214Z,100690.72
2018-06-04T07:20:42.334Z,100685.33
2018-06-04T07:23:11.417Z,100692.25
2018-06-04T07:25:40.521Z,100695.89
2018-06-04T07:28:09.634Z,100689.55
2018-06-04T07:30:38.729Z,100688.09
2018-06-04T07:33:07.839Z,100691.39
2018-06-04T07:35:36.962Z,100686.45
2018-06-04T07:38:06.086Z,100690.16
2018-06-04T07:40:35.189Z,100685.07
2018-06-04T07:43:04.306Z,100682.28
2018-06-04T07:45:33.425Z,100678.16
2018-06-04T07:48:02.526Z,100677.19
2018-06-04T07:50:31.618Z,100668.04
2018-06-04T07:53:00.739Z,100663.39
2018-06-04T07:55:29.837Z,100663.12
2018-06-04T07:57:58.974Z,100665.39
2018-06-04T08:00:28.101Z,100658.73
2018-06-04T08:02:57.240Z,100663.06
2018-06-04T08:05:26.362Z,100663.57
2018-06-04T08:07:55.534Z,100655.78
2018-06-04T08:10:24.671Z,100654.34
2018-06-04T08:12:53.829Z,100645.28
2018-06-04T08:15:22.886Z,100647.48
2018-06-04T08:17:52.030Z,100649.33
2018-06-04T08:20:21.112Z,100643.06
2018-06-04T08:22:50.247Z,100641.03
2018-06-04T08:25:19.338Z,100642.54
2018-06-04T08:27:48.461Z,100644.78
2018-06-04T08:30:17.582Z,100635.28
2018-06-04T08:32:46.694Z,100639.70
2018-06-04T08:35:15.813Z,100638.16
2018-06-04T08:37:44.906Z,100639.30
2018-06-04T08:40:14.076Z,100636.58
2018-06-04T08:42:43.166Z,100634.90
2018-06-04T08:45:12.266Z,100633.22
2018-06-04T08:47:41.394Z,100638.09
2018-06-04T08:50:10.494Z,100634.45
2018-06-04T08:52:39.617Z,100626.00
2018-06-04T08:55:08.762Z,100637.31
2018-06-04T08:57:37.994Z,100630.70
2018-06-04T09:00:07.238Z,100628.70
2018-06-04T09:02:36.329Z,100624.78
2018-06-04T09:05:05.534Z,100626.52
2018-06-04T09:07:34.713Z,100629.66
2018-06-04T09:10:03.832Z,100625.72
2018-06-04T09:12:32.937Z,100628.72
2018-06-04T09:15:02.074Z,100631.29
2018-06-04T09:17:31.176Z,100619.73
2018-06-04T09:20:00.297Z,100622.73
2018-06-04T09:22:29.413Z,100627.64
2018-06-04T09:24:58.550Z,100627.64
2018-06-04T09:27:27.667Z,100624.64
2018-06-04T09:29:56.781Z,100625.20
2018-06-04T09:32:25.926Z,100625.75
2018-06-04T09:34:55.046Z,100623.67
2018-06-04T09:37:24.170Z,100622.48
2018-06-04T09:39:53.263Z,100626.86
2018-06-04T09:42:22.409Z,100624.72
2018-06-04T09:44:51.530Z,100615.75
2018-06-04T09:47:20.658Z,100625.72
2018-06-04T09:49:49.773Z,100626.61
2018-06-04T09:52:18.882Z,100619.61
2018-06-04T09:54:47.981Z,100608.38
2018-06-04T09:57:17.118Z,100616.47
2018-06-04T09:59:46.218Z,100619.29
2018-06-04T10:02:15.338Z,100611.27
2018-06-04T10:04:44.459Z,100610.99
2018-06-04T10:07:13.578Z,100609.52
2018-06-04T10:09:42.694Z,100603.13
2018-06-04T10:12:11.821Z,100606.61
2018-06-04T10:14:40.942Z,100604.91
2018-06-04T10:17:10.031Z,100606.20
2018-06-04T10:19:39.137Z,100597.48
2018-06-04T10:22:08.255Z,100595.90
2018-06-04T10:24:37.338Z,100599.70
2018-06-04T10:27:06.501Z,100603.48
2018-06-04T10:29:35.610Z,100607.42
2018-06-04T10:32:04.714Z,100598.19
2018-06-04T10:34:33.837Z,100592.61
2018-06-04T10:37:03.002Z,100592.17
2018-06-04T10:39:32.102Z,100595.02
2018-06-04T10:42:01.198Z,100596.84
2018-06-04T10:47:27.694Z,100599.58
2018-06-04T10:49:56.796Z,100595.50
2018-06-04T10:52:26.853Z,100594.86
2018-06-04T10:54:55.949Z,100593.84
2018-06-04T10:57:25.093Z,100589.63
2018-06-04T10:59:54.209Z,100591.36
2018-06-04T11:02:23.301Z,100588.23
2018-06-04T11:04:52.434Z,100589.56
2018-06-04T11:07:21.554Z,100582.13
2018-06-04T11:09:50.657Z,100585.28
2018-06-04T11:12:19.802Z,100576.23
2018-06-04T11:14:48.887Z,100573.89
2018-06-04T11:17:18.010Z,100573.34
2018-06-04T11:19:47.101Z,100569.96
2018-06-04T11:22:16.214Z,100572.20
2018-06-04T11:24:45.317Z,100571.32
2018-06-04T11:27:14.419Z,100574.39
2018-06-04T11:29:43.537Z,100566.42
2018-06-04T11:32:12.633Z,100565.17
2018-06-04T11:34:41.749Z,100565.59
2018-06-04T11:37:10.853Z,100562.25
2018-06-04T11:39:39.942Z,100556.10
2018-06-04T11:42:09.049Z,100550.05
2018-06-04T11:44:38.178Z,100557.72
2018-06-04T11:47:07.258Z,100556.27
2018-06-04T11:49:36.393Z,100548.36
2018-06-04T11:52:05.490Z,100550.16
2018-06-04T11:54:34.590Z,100546.61
2018-06-04T11:57:03.693Z,100556.39
2018-06-04T11:59:32.778Z,100554.67
2018-06-04T12:02:01.877Z,100550.26
2018-06-04T12:04:30.973Z,100538.52
2018-06-04T12:07:00.194Z,100538.98
2018-06-04T12:09:29.289Z,100544.31
2018-06-04T12:11:58.433Z,100538.78
2018-06-04T12:14:27.562Z,100540.28
2018-06-04T12:16:56.677Z,100540.42
2018-06-04T12:19:25.793Z,100538.78
2018-06-04T12:21:54.898Z,100540.19
2018-06-04T12:24:24.094Z,100526.40
2018-06-04T12:26:54.253Z,100533.06
2018-06-04T12:29:23.345Z,100526.61
2018-06-04T12:31:52.518Z,100525.17
2018-06-04T12:34:21.621Z,100524.79
2018-06-04T12:36:50.738Z,100535.50
2018-06-04T12:39:19.845Z,100529.78
2018-06-04T12:41:48.941Z,100523.48
2018-06-04T12:44:18.045Z,100523.67
2018-06-04T12:46:47.193Z,100512.48
2018-06-04T12:49:16.272Z,100505.08
2018-06-04T12:51:45.378Z,100513.71
2018-06-04T12:54:14.460Z,100512.42
2018-06-04T12:56:43.580Z,100509.27
2018-06-04T12:59:12.981Z,100510.94
2018-06-04T13:01:42.085Z,100507.24
2018-06-04T13:04:11.186Z,100508.88
2018-06-04T13:06:40.265Z,100498.38
2018-06-04T13:09:09.396Z,100504.36
2018-06-04T13:11:38.505Z,100495.59
2018-06-04T13:14:07.602Z,100487.27
2018-06-04T13:16:36.746Z,100487.72
2018-06-04T13:19:05.844Z,100488.29
2018-06-04T13:21:34.975Z,100482.34
2018-06-04T13:24:04.039Z,100474.52
2018-06-04T13:26:33.118Z,100475.03
2018-06-04T13:29:02.213Z,100470.16
2018-06-04T13:31:31.292Z,100474.42
2018-06-04T13:34:00.413Z,100471.05
2018-06-04T13:36:29.545Z,100475.13
2018-06-04T13:38:58.661Z,100466.66
2018-06-04T13:41:27.829Z,100461.80
2018-06-04T13:43:56.941Z,100457.66
2018-06-04T13:46:26.412Z,100459.41
2018-06-04T13:48:55.602Z,100456.78
2018-06-04T13:51:24.722Z,100458.80
2018-06-04T13:53:53.823Z,100460.30
2018-06-04T13:56:22.983Z,100454.53
2018-06-04T13:58:52.045Z,100450.02
2018-06-04T14:01:21.172Z,100448.48
2018-06-04T14:03:50.282Z,100437.17
2018-06-04T14:06:19.379Z,100440.41
2018-06-04T14:08:48.525Z,100434.16
2018-06-04T14:11:17.647Z,100440.13
2018-06-04T14:13:46.702Z,100436.52
2018-06-04T14:16:15.794Z,100432.81
2018-06-04T14:18:44.931Z,100438.43
2018-06-04T14:21:14.044Z,100431.67
2018-06-04T14:23:43.160Z,100424.94
2018-06-04T14:26:12.276Z,100428.50
2018-06-04T14:28:41.393Z,100421.92
2018-06-04T14:31:10.491Z,100419.22
2018-06-04T14:33:39.594Z,100430.78
2018-06-04T14:36:08.690Z,100422.73
2018-06-04T14:38:37.791Z,100422.53
2018-06-04T14:41:06.869Z,100413.45
2018-06-04T14:43:36.831Z,100402.98
2018-06-04T14:46:05.901Z,100402.96
2018-06-04T14:48:35.025Z,100400.13
2018-06-04T14:51:04.114Z,100402.75
2018-06-04T14:53:33.220Z,100401.07
2018-06-04T14:56:02.309Z,100389.36
2018-06-04T14:58:31.398Z,100388.98
2018-06-04T15:01:00.520Z,100386.99
2018-06-04T15:03:29.601Z,100388.63
2018-06-04T15:05:58.837Z,100377.96
2018-06-04T15:08:27.976Z,100376.66
2018-06-04T15:10:57.061Z,100372.72
2018-06-04T15:13:26.281Z,100383.39
2018-06-04T15:15:55.383Z,100381.78
2018-06-04T15:18:24.510Z,100375.84
2018-06-04T15:20:53.635Z,100376.08
2018-06-04T15:23:22.716Z,100372.19
2018-06-04T15:25:51.842Z,100368.48
2018-06-04T15:28:20.941Z,100365.66
2018-06-04T15:30:50.061Z,100364.58
2018-06-04T15:33:19.149Z,100357.18
2018-06-04T15:35:48.287Z,100358.52
2018-06-04T15:38:17.365Z,100354.66
2018-06-04T15:40:46.465Z,100349.49
2018-06-04T15:43:15.557Z,100345.15
2018-06-04T15:45:44.661Z,100346.22
2018-06-04T15:48:13.785Z,100340.24
2018-06-04T15:50:42.894Z,100334.56
2018-06-04T15:53:12.241Z,100337.45
2018-06-04T15:55:41.337Z,100335.25
2018-06-04T15:58:10.413Z,100335.36
2018-06-04T16:00:39.513Z,100330.39
2018-06-04T16:03:08.670Z,100334.88
2018-06-04T16:05:37.725Z,100326.42
2018-06-04T16:08:06.841Z,100330.25
2018-06-04T16:10:35.953Z,100326.27
2018-06-04T16:13:05.061Z,100319.32
2018-06-04T16:15:34.169Z,100321.25
2018-06-04T16:18:03.262Z,100318.50
2018-06-04T16:20:32.357Z,100320.28
2018-06-04T16:23:01.513Z,100322.55
2018-06-04T16:25:30.614Z,100319.07
2018-06-04T16:27:59.737Z,100323.95
2018-06-04T16:30:28.841Z,100320.30
2018-06-04T16:32:57.951Z,100316.90
2018-06-04T16:35:27.065Z,100321.25
2018-06-04T16:37:56.152Z,100313.38
2018-06-04T16:40:25.266Z,100314.34
2018-06-04T16:42:54.374Z,100308.74
2018-06-04T16:45:23.777Z,100319.08
2018-06-04T16:47:52.885Z,100307.05
2018-06-04T16:50:22.037Z,100312.28
2018-06-04T16:52:51.084Z,100309.47
2018-06-04T16:55:20.185Z,100304.51
2018-06-04T16:57:49.292Z,100308.13
2018-06-04T17:00:18.385Z,100302.94
2018-06-04T17:02:47.502Z,100306.80
2018-06-04T17:05:16.573Z,100303.49
2018-06-04T17:07:45.677Z,100295.57
2018-06-04T17:10:14.782Z,100295.81
2018-06-04T17:12:43.860Z,100297.52
2018-06-04T17:15:12.973Z,100293.97
2018-06-04T17:17:42.090Z,100291.67
2018-06-04T17:20:11.209Z,100293.97
2018-06-04T17:22:40.339Z,100289.72
2018-06-04T17:25:09.436Z,100291.87
2018-06-04T17:27:38.545Z,100286.30
2018-06-04T17:30:07.669Z,100291.45
2018-06-04T17:32:36.793Z,100292.59
2018-06-04T17:35:05.893Z,100295.21
2018-06-04T17:37:34.981Z,100295.21
2018-06-04T17:40:04.169Z,100297.87
2018-06-04T17:42:33.249Z,100300.41
2018-06-04T17:45:02.408Z,100301.13
2018-06-04T17:47:31.425Z,100311.16
2018-06-04T17:50:00.537Z,100310.55
2018-06-04T17:52:29.662Z,100313.02
2018-06-04T17:54:58.791Z,100314.11
2018-06-04T17:57:27.918Z,100323.24
2018-06-04T17:59:57.015Z,100318.70
2018-06-04T18:02:26.188Z,100317.58
2018-06-04T18:04:55.618Z,100320.53
2018-06-04T18:07:24.741Z,100322.55
2018-06-04T18:09:53.833Z,100328.45
2018-06-04T18:12:22.934Z,100325.16
2018-06-04T18:14:52.137Z,100331.91
2018-06-04T18:17:21.248Z,100326.23
2018-06-04T18:19:50.349Z,100339.14
2018-06-04T18:22:19.501Z,100340.87
2018-06-04T18:24:48.589Z,100339.84
2018-06-04T18:27:17.797Z,100335.37
2018-06-04T18:29:46.849Z,100344.57
2018-06-04T18:32:16.102Z,100348.78
2018-06-04T18:34:45.482Z,100344.39
2018-06-04T18:37:14.605Z,100348.07
2018-06-04T18:39:43.746Z,100344.43
2018-06-04T18:42:12.908Z,100351.67
2018-06-04T18:44:42.028Z,100365.61
2018-06-04T18:47:11.174Z,100363.64
2018-06-04T18:49:40.287Z,100370.81
2018-06-04T18:52:09.393Z,100376.84
2018-06-04T18:54:38.501Z,100383.67
2018-06-04T18:57:07.601Z,100388.55
2018-06-04T18:59:36.718Z,100386.53
2018-06-04T19:02:05.889Z,100388.49
2018-06-04T19:04:36.117Z,100389.37
2018-06-04T19:07:05.233Z,100388.98
2018-06-04T19:09:34.325Z,100396.48
2018-06-04T19:12:03.438Z,100394.27
2018-06-04T19:14:32.540Z,100399.41
2018-06-04T19:17:01.668Z,100394.50
2018-06-04T19:19:30.796Z,100395.70
2018-06-04T19:21:59.937Z,100402.27
2018-06-04T19:24:29.061Z,100407.00
2018-06-04T19:26:58.257Z,100417.55
2018-06-04T19:29:27.305Z,100418.42
2018-06-04T19:31:56.481Z,100425.66
2018-06-04T19:34:25.604Z,100430.86
2018-06-04T19:36:54.735Z,100429.34
2018-06-04T19:39:23.840Z,100437.62
2018-06-04T19:41:52.967Z,100442.00
2018-06-04T19:44:22.066Z,100444.62
2018-06-04T19:46:51.194Z,100448.80
2018-06-04T19:49:20.312Z,100450.87
2018-06-04T19:51:49.411Z,100459.77
2018-06-04T19:54:18.527Z,100461.88
2018-06-04T19:56:47.625Z,100463.20
2018-06-04T19:59:16.729Z,100464.81
2018-06-04T20:01:45.841Z,100470.58
2018-06-04T20:04:14.953Z,100466.42
2018-06-04T20:06:44.073Z,100474.36
2018-06-04T20:09:13.189Z,100475.84
2018-06-04T20:11:42.290Z,100476.57
2018-06-04T20:14:11.381Z,100479.36
2018-06-04T20:16:40.501Z,100484.68
2018-06-04T20:19:09.617Z,100486.03
2018-06-04T20:21:38.762Z,100491.95
2018-06-04T20:24:07.877Z,100492.13
2018-06-04T20:26:37.001Z,100496.30
2018-06-04T20:29:06.110Z,100498.86
2018-06-04T20:31:35.187Z,100491.45
2018-06-04T20:34:04.320Z,100490.19
2018-06-04T20:36:33.455Z,100494.24
2018-06-04T20:39:02.533Z,100492.77
2018-06-04T20:41:31.629Z,100494.03
2018-06-04T20:44:00.736Z,100498.50
2018-06-04T20:46:29.817Z,100499.69
2018-06-04T20:48:58.944Z,100509.22
2018-06-04T20:51:28.073Z,100512.72
2018-06-04T20:53:57.162Z,100517.03
2018-06-04T20:56:26.299Z,100526.34
2018-06-04T20:58:55.394Z,100529.52
2018-06-04T21:01:24.506Z,100532.63
2018-06-04T21:03:53.605Z,100542.77
2018-06-04T21:06:22.741Z,100537.08
2018-06-04T21:08:52.153Z,100531.44
2018-06-04T21:11:21.281Z,100540.33
2018-06-04T21:13:50.419Z,100542.22
2018-06-04T21:16:19.484Z,100540.11
2018-06-04T21:18:48.594Z,100542.47
2018-06-04T21:21:17.701Z,100541.92
2018-06-04T21:23:46.817Z,100537.56
2018-06-04T21:26:15.977Z,100534.62
2018-06-04T21:28:45.069Z,100528.01
2018-06-04T21:31:14.162Z,100536.23
2018-06-04T21:33:43.293Z,100527.53
2018-06-04T21:36:12.417Z,100530.38
2018-06-04T21:38:41.549Z,100532.30
2018-06-04T21:41:10.658Z,100533.19
2018-06-04T21:43:39.773Z,100527.37
2018-06-04T21:46:08.861Z,100527.42
2018-06-04T21:48:38.017Z,100526.40
2018-06-04T21:51:07.122Z,100524.50
2018-06-04T21:53:36.221Z,100527.83
2018-06-04T21:56:05.353Z,100525.68
2018-06-04T21:58:34.454Z,100531.08
2018-06-04T22:01:03.652Z,100526.80
2018-06-04T22:03:32.745Z,100527.14
2018-06-04T22:06:01.867Z,100531.63
2018-06-04T22:08:31.033Z,100532.09
2018-06-04T22:11:00.049Z,100529.36
2018-06-04T22:13:29.185Z,100522.98
2018-06-04T22:15:58.317Z,100526.56
2018-06-04T22:18:27.437Z,100529.84
2018-06-04T22:20:56.549Z,100534.57
2018-06-04T22:23:25.657Z,100533.17
2018-06-04T22:25:54.740Z,100533.88
2018-06-04T22:28:23.863Z,100534.20
2018-06-04T22:30:52.997Z,100536.00
2018-06-04T22:33:22.114Z,100531.56
2018-06-04T22:35:51.225Z,100528.52
2018-06-04T22:38:20.321Z,100531.94
2018-06-04T22:40:49.417Z,100529.70
2018-06-04T22:43:18.553Z,100528.51
2018-06-04T22:45:47.658Z,100528.91
2018-06-04T22:48:16.736Z,100523.31
2018-06-04T22:50:45.832Z,100519.32
2018-06-04T22:53:14.935Z,100526.23
2018-06-04T22:55:44.041Z,100521.41
2018-06-04T22:58:13.142Z,100532.69
2018-06-04T23:00:42.274Z,100526.48
2018-06-04T23:03:11.368Z,100529.98
2018-06-04T23:05:40.497Z,100534.11
2018-06-04T23:08:09.597Z,100533.19
2018-06-04T23:10:38.693Z,100531.92
2018-06-04T23:13:07.796Z,100535.80
2018-06-04T23:15:36.909Z,100527.41
2018-06-04T23:18:06.026Z,100529.31
2018-06-04T23:20:35.136Z,100530.83
2018-06-04T23:23:04.285Z,100527.38
2018-06-04T23:25:33.385Z,100530.91
2018-06-04T23:28:02.498Z,100537.81
2018-06-04T23:30:31.846Z,100534.64
2018-06-04T23:33:00.958Z,100540.70
2018-06-04T23:35:30.053Z,100545.98
2018-06-04T23:37:59.173Z,100533.64
2018-06-04T23:40:28.264Z,100536.44
2018-06-04T23:42:57.360Z,100536.56
2018-06-04T23:45:26.517Z,100544.78
2018-06-04T23:47:55.617Z,100537.98
2018-06-04T23:50:24.745Z,100545.53
2018-06-04T23:52:53.860Z,100531.38
2018-06-04T23:55:22.972Z,100527.92
2018-06-04T23:57:52.078Z,100529.72
